Linden, TN (37096)

9:26 PM CDT on July 27, 2016 (GMT -0500)
ParsonsWeather.com | | Change Station
Active Advisory: Flash Flood Watch

Elev 494 ft 35.65 °N, 88.13 °W | Updated 27 seconds ago

Partly Cloudy
Partly Cloudy
81.3 °F
Feels Like 86 °F
N
1.2
Wind Variable Wind from SE
Gusts 1.2 mph

Today
High -- | Low -- °F
--% Chance of Precip.
Yesterday
High -- | Low -- °F
Precip. -- in
Pressure 29.94 in
Visibility 10.0 miles
Clouds Few 5000 ft
Heat Index 86 °F
Dew Point 73 °F
Humidity 75%
Rainfall 0.00 in
Snow Depth Not available.
5:56 AM 7:59 PM
Last Quarter, 37% visible
METAR KMRC 280215Z AUTO 20012KT 10SM FEW050 29/26 A2994 RMK
Pressure 29.94 in
Visibility 10.0 miles
Clouds Few 5000 ft
Heat Index 86 °F
Dew Point 73 °F
Humidity 75%
Rainfall 0.00 in
Snow Depth Not available.
5:56 AM 7:59 PM
Last Quarter, 37% visible
METAR KMRC 280215Z AUTO 20012KT 10SM FEW050 29/26 A2994 RMK

10-Day Weather Forecast

Almanac

Astronomy

Jul. 27, 2016 Rise Set
Actual Time
Civil Twilight
Nautical Twilight
Astronomical Twilight
Moon
Length of Visible Light
Length of Day
Tomorrow will be .
, % of the Moon is Illuminated

Today's Extremes

State Highs State Lows

Community

WunderPhotos

Upload Photos

1,928,013 photos uploaded!

WunderBlog® & News

Nearby

Air Quality

  Air Quality AQ Index Pollutant
Not available.

Snow Depth

Station Depth Elevation

Earthquake Activity

City Distance Mag. Time & Date
Minimum magnitude displayed is 2.5.

Coastal Water Temperatures

Place Temperature

Stations

Nearby Weather Stations

Station Location Temp. Windchill Dew Point Humidity Wind Precip. Elev Updated Type
                   

Watches & Warnings

Flash Flood Watch
Issued: 1:58 PM CDT Jul. 27, 2016 – National Weather Service

... Flash Flood Watch in effect for Thursday...

The National Weather Service in Nashville has issued a

* Flash Flood Watch for a portion of middle Tennessee...
including the following areas... Cannon... Cheatham... Clay...
Davidson... De Kalb... Dickson... Fentress... Hickman... Houston...
Humphreys... Jackson... Lewis... Macon... Maury... Montgomery...
Overton... Perry... Pickett... Putnam... Robertson... Rutherford...
Smith... Stewart... Sumner... Trousdale... Wayne... Williamson and
Wilson.

* From 1 am CDT Thursday through 1 am CDT Friday

* widespread showers and thunderstorms expected late tonight
through Thursday will lead to locally heavy rainfall of 2 to 4
inches with higher amounts. Intense rainfall rates may lead to
several inches of rain in a short amount of time.

* Flash flooding is possible with the heaviest downpours... leading
to quick flooding of roads... poor drainage areas... and other
low lying locations.

Precautionary/preparedness actions...

A Flash Flood Watch means that conditions may develop that lead
to flash flooding. Flash flooding is a very dangerous situation.

You should monitor later forecasts and be prepared to take action
should flash flood warnings be issued.



Shamburger/Herron